sensor_id;sensor_type;location;lat;lon;timestamp;P1;durP1;ratioP1;P2;durP2;ratioP2
11319;SDS011;5715;48.234;14.320;2023-05-18T00:01:39;4.17;;;2.97;;
11319;SDS011;5715;48.234;14.320;2023-05-18T00:04:27;3.13;;;2.83;;
11319;SDS011;5715;48.234;14.320;2023-05-18T00:07:15;5.53;;;4.07;;
11319;SDS011;5715;48.234;14.320;2023-05-18T00:10:03;9.03;;;3.73;;
11319;SDS011;5715;48.234;14.320;2023-05-18T00:12:52;4.40;;;3.40;;
11319;SDS011;5715;48.234;14.320;2023-05-18T00:15:39;3.77;;;3.47;;
11319;SDS011;5715;48.234;14.320;2023-05-18T00:18:27;4.73;;;3.20;;
11319;SDS011;5715;48.234;14.320;2023-05-18T00:21:15;3.70;;;3.30;;
11319;SDS011;5715;48.234;14.320;2023-05-18T00:24:03;3.40;;;3.10;;
11319;SDS011;5715;48.234;14.320;2023-05-18T00:26:51;5.80;;;3.43;;
11319;SDS011;5715;48.234;14.320;2023-05-18T00:29:39;4.57;;;3.37;;
11319;SDS011;5715;48.234;14.320;2023-05-18T00:32:27;5.40;;;3.47;;
11319;SDS011;5715;48.234;14.320;2023-05-18T00:35:14;3.37;;;3.07;;
11319;SDS011;5715;48.234;14.320;2023-05-18T00:38:02;3.10;;;2.80;;
11319;SDS011;5715;48.234;14.320;2023-05-18T00:40:49;8.17;;;3.17;;
11319;SDS011;5715;48.234;14.320;2023-05-18T00:43:40;3.50;;;2.97;;
11319;SDS011;5715;48.234;14.320;2023-05-18T00:46:27;5.50;;;3.23;;
11319;SDS011;5715;48.234;14.320;2023-05-18T00:49:16;3.87;;;3.53;;
11319;SDS011;5715;48.234;14.320;2023-05-18T00:52:04;4.07;;;3.07;;
11319;SDS011;5715;48.234;14.320;2023-05-18T00:54:52;4.90;;;3.57;;
11319;SDS011;5715;48.234;14.320;2023-05-18T00:57:40;3.57;;;2.67;;
11319;SDS011;5715;48.234;14.320;2023-05-18T01:00:31;5.13;;;3.63;;
11319;SDS011;5715;48.234;14.320;2023-05-18T01:03:19;3.93;;;3.50;;
11319;SDS011;5715;48.234;14.320;2023-05-18T01:06:08;4.43;;;4.03;;
11319;SDS011;5715;48.234;14.320;2023-05-18T01:08:58;5.00;;;3.93;;
11319;SDS011;5715;48.234;14.320;2023-05-18T01:14:53;4.03;;;3.47;;
11319;SDS011;5715;48.234;14.320;2023-05-18T01:18:22;3.80;;;3.30;;
11319;SDS011;5715;48.234;14.320;2023-05-18T01:21:51;3.57;;;3.27;;
11319;SDS011;5715;48.234;14.320;2023-05-18T01:25:32;5.03;;;3.53;;
11319;SDS011;5715;48.234;14.320;2023-05-18T01:28:34;4.10;;;3.07;;
11319;SDS011;5715;48.234;14.320;2023-05-18T01:31:22;6.23;;;4.10;;
11319;SDS011;5715;48.234;14.320;2023-05-18T01:34:09;6.37;;;4.93;;
11319;SDS011;5715;48.234;14.320;2023-05-18T01:36:57;6.77;;;4.13;;
11319;SDS011;5715;48.234;14.320;2023-05-18T01:39:44;4.07;;;3.67;;
11319;SDS011;5715;48.234;14.320;2023-05-18T01:42:33;4.83;;;3.50;;
11319;SDS011;5715;48.234;14.320;2023-05-18T01:45:32;6.47;;;3.87;;
11319;SDS011;5715;48.234;14.320;2023-05-18T01:48:23;6.63;;;4.47;;
11319;SDS011;5715;48.234;14.320;2023-05-18T01:51:12;4.67;;;4.27;;
11319;SDS011;5715;48.234;14.320;2023-05-18T01:54:04;4.40;;;3.20;;
11319;SDS011;5715;48.234;14.320;2023-05-18T01:56:54;7.40;;;3.83;;
11319;SDS011;5715;48.234;14.320;2023-05-18T01:59:43;3.80;;;3.30;;
11319;SDS011;5715;48.234;14.320;2023-05-18T02:02:32;4.07;;;3.47;;
11319;SDS011;5715;48.234;14.320;2023-05-18T02:05:20;3.43;;;2.83;;
11319;SDS011;5715;48.234;14.320;2023-05-18T02:08:07;6.60;;;4.20;;
11319;SDS011;5715;48.234;14.320;2023-05-18T02:10:55;3.93;;;3.53;;
11319;SDS011;5715;48.234;14.320;2023-05-18T02:13:42;5.90;;;4.70;;
11319;SDS011;5715;48.234;14.320;2023-05-18T02:16:30;5.17;;;4.67;;
11319;SDS011;5715;48.234;14.320;2023-05-18T02:19:18;4.77;;;4.10;;
11319;SDS011;5715;48.234;14.320;2023-05-18T02:22:07;3.93;;;3.50;;
11319;SDS011;5715;48.234;14.320;2023-05-18T02:24:55;8.17;;;3.77;;
11319;SDS011;5715;48.234;14.320;2023-05-18T02:27:42;4.13;;;3.50;;
11319;SDS011;5715;48.234;14.320;2023-05-18T02:30:30;4.70;;;4.23;;
11319;SDS011;5715;48.234;14.320;2023-05-18T02:33:18;7.07;;;4.50;;
11319;SDS011;5715;48.234;14.320;2023-05-18T02:36:12;5.93;;;5.33;;
11319;SDS011;5715;48.234;14.320;2023-05-18T02:39:00;5.37;;;4.37;;
11319;SDS011;5715;48.234;14.320;2023-05-18T02:41:50;5.80;;;4.40;;
11319;SDS011;5715;48.234;14.320;2023-05-18T02:44:37;5.17;;;4.27;;
11319;SDS011;5715;48.234;14.320;2023-05-18T02:47:25;5.63;;;4.10;;
11319;SDS011;5715;48.234;14.320;2023-05-18T02:50:13;4.27;;;3.87;;
11319;SDS011;5715;48.234;14.320;2023-05-18T02:53:00;3.70;;;3.40;;
11319;SDS011;5715;48.234;14.320;2023-05-18T02:55:48;8.20;;;4.77;;
11319;SDS011;5715;48.234;14.320;2023-05-18T02:58:43;3.90;;;3.50;;
11319;SDS011;5715;48.234;14.320;2023-05-18T03:01:30;6.40;;;4.47;;
11319;SDS011;5715;48.234;14.320;2023-05-18T03:04:20;5.97;;;4.50;;
11319;SDS011;5715;48.234;14.320;2023-05-18T03:07:11;6.30;;;4.03;;
11319;SDS011;5715;48.234;14.320;2023-05-18T03:10:01;9.40;;;4.43;;
11319;SDS011;5715;48.234;14.320;2023-05-18T03:12:50;8.40;;;4.10;;
11319;SDS011;5715;48.234;14.320;2023-05-18T03:15:37;4.47;;;3.60;;
11319;SDS011;5715;48.234;14.320;2023-05-18T03:18:26;9.07;;;4.23;;
11319;SDS011;5715;48.234;14.320;2023-05-18T03:21:13;6.50;;;4.13;;
11319;SDS011;5715;48.234;14.320;2023-05-18T03:24:02;4.57;;;3.87;;
11319;SDS011;5715;48.234;14.320;2023-05-18T03:26:51;6.13;;;5.00;;
11319;SDS011;5715;48.234;14.320;2023-05-18T03:29:40;5.27;;;4.23;;
11319;SDS011;5715;48.234;14.320;2023-05-18T03:32:28;5.10;;;3.50;;
11319;SDS011;5715;48.234;14.320;2023-05-18T03:35:17;4.20;;;3.80;;
11319;SDS011;5715;48.234;14.320;2023-05-18T03:38:05;4.37;;;3.63;;
11319;SDS011;5715;48.234;14.320;2023-05-18T03:40:53;6.53;;;4.70;;
11319;SDS011;5715;48.234;14.320;2023-05-18T03:43:41;4.10;;;3.30;;
11319;SDS011;5715;48.234;14.320;2023-05-18T03:46:28;5.10;;;3.93;;
11319;SDS011;5715;48.234;14.320;2023-05-18T03:49:16;5.07;;;4.43;;
11319;SDS011;5715;48.234;14.320;2023-05-18T03:52:04;8.73;;;6.43;;
11319;SDS011;5715;48.234;14.320;2023-05-18T03:54:52;6.83;;;4.40;;
11319;SDS011;5715;48.234;14.320;2023-05-18T03:57:40;5.53;;;4.73;;
11319;SDS011;5715;48.234;14.320;2023-05-18T04:00:27;8.87;;;5.20;;
11319;SDS011;5715;48.234;14.320;2023-05-18T04:03:16;10.93;;;4.63;;
11319;SDS011;5715;48.234;14.320;2023-05-18T04:06:03;6.43;;;4.30;;
11319;SDS011;5715;48.234;14.320;2023-05-18T04:08:52;7.50;;;4.57;;
11319;SDS011;5715;48.234;14.320;2023-05-18T04:11:40;4.70;;;4.03;;
11319;SDS011;5715;48.234;14.320;2023-05-18T04:14:28;4.37;;;3.93;;
11319;SDS011;5715;48.234;14.320;2023-05-18T04:17:19;7.00;;;3.80;;
11319;SDS011;5715;48.234;14.320;2023-05-18T04:20:12;3.63;;;3.33;;
11319;SDS011;5715;48.234;14.320;2023-05-18T04:23:00;7.77;;;4.43;;
11319;SDS011;5715;48.234;14.320;2023-05-18T04:25:49;9.67;;;5.80;;
11319;SDS011;5715;48.234;14.320;2023-05-18T04:28:37;6.27;;;4.10;;
11319;SDS011;5715;48.234;14.320;2023-05-18T04:31:28;7.83;;;3.07;;
11319;SDS011;5715;48.234;14.320;2023-05-18T04:34:15;5.57;;;4.43;;
11319;SDS011;5715;48.234;14.320;2023-05-18T04:37:06;6.90;;;4.87;;
11319;SDS011;5715;48.234;14.320;2023-05-18T04:39:53;7.07;;;4.90;;
11319;SDS011;5715;48.234;14.320;2023-05-18T04:42:41;5.03;;;4.43;;
11319;SDS011;5715;48.234;14.320;2023-05-18T04:45:31;5.30;;;4.63;;
11319;SDS011;5715;48.234;14.320;2023-05-18T04:48:20;4.73;;;4.00;;
11319;SDS011;5715;48.234;14.320;2023-05-18T04:51:07;8.27;;;5.10;;
11319;SDS011;5715;48.234;14.320;2023-05-18T04:53:55;6.03;;;4.83;;
11319;SDS011;5715;48.234;14.320;2023-05-18T04:56:43;9.07;;;5.30;;
11319;SDS011;5715;48.234;14.320;2023-05-18T04:59:33;5.97;;;4.10;;
11319;SDS011;5715;48.234;14.320;2023-05-18T05:02:22;7.40;;;4.83;;
11319;SDS011;5715;48.234;14.320;2023-05-18T05:05:10;7.93;;;5.73;;
11319;SDS011;5715;48.234;14.320;2023-05-18T05:07:58;5.20;;;4.70;;
11319;SDS011;5715;48.234;14.320;2023-05-18T05:10:45;6.10;;;5.47;;
11319;SDS011;5715;48.234;14.320;2023-05-18T05:13:33;7.60;;;5.37;;
11319;SDS011;5715;48.234;14.320;2023-05-18T05:16:21;6.13;;;5.43;;
11319;SDS011;5715;48.234;14.320;2023-05-18T05:19:09;7.03;;;6.07;;
11319;SDS011;5715;48.234;14.320;2023-05-18T05:21:57;8.70;;;5.73;;
11319;SDS011;5715;48.234;14.320;2023-05-18T05:24:45;6.63;;;5.40;;
11319;SDS011;5715;48.234;14.320;2023-05-18T05:27:33;10.80;;;7.77;;
11319;SDS011;5715;48.234;14.320;2023-05-18T05:30:20;9.17;;;6.37;;
11319;SDS011;5715;48.234;14.320;2023-05-18T05:33:08;10.20;;;7.17;;
11319;SDS011;5715;48.234;14.320;2023-05-18T05:35:56;13.43;;;8.60;;
11319;SDS011;5715;48.234;14.320;2023-05-18T05:38:44;9.93;;;7.50;;
11319;SDS011;5715;48.234;14.320;2023-05-18T05:41:31;9.07;;;6.90;;
11319;SDS011;5715;48.234;14.320;2023-05-18T05:44:19;9.80;;;6.47;;
11319;SDS011;5715;48.234;14.320;2023-05-18T05:47:07;13.37;;;8.87;;
11319;SDS011;5715;48.234;14.320;2023-05-18T05:49:55;12.00;;;7.80;;
11319;SDS011;5715;48.234;14.320;2023-05-18T05:52:43;7.80;;;6.07;;
11319;SDS011;5715;48.234;14.320;2023-05-18T05:55:30;12.43;;;8.30;;
11319;SDS011;5715;48.234;14.320;2023-05-18T05:58:18;10.53;;;7.17;;
11319;SDS011;5715;48.234;14.320;2023-05-18T06:01:06;12.07;;;7.90;;
11319;SDS011;5715;48.234;14.320;2023-05-18T06:03:57;9.93;;;7.63;;
11319;SDS011;5715;48.234;14.320;2023-05-18T06:06:45;15.67;;;8.10;;
11319;SDS011;5715;48.234;14.320;2023-05-18T06:09:34;13.20;;;8.77;;
11319;SDS011;5715;48.234;14.320;2023-05-18T06:12:21;10.73;;;6.67;;
11319;SDS011;5715;48.234;14.320;2023-05-18T06:15:09;8.47;;;7.40;;
11319;SDS011;5715;48.234;14.320;2023-05-18T06:17:57;9.37;;;6.93;;
11319;SDS011;5715;48.234;14.320;2023-05-18T06:20:45;9.10;;;6.73;;
11319;SDS011;5715;48.234;14.320;2023-05-18T06:23:32;11.70;;;8.07;;
11319;SDS011;5715;48.234;14.320;2023-05-18T06:26:20;13.17;;;8.47;;
11319;SDS011;5715;48.234;14.320;2023-05-18T06:29:08;12.27;;;7.73;;
11319;SDS011;5715;48.234;14.320;2023-05-18T06:31:56;16.43;;;8.53;;
11319;SDS011;5715;48.234;14.320;2023-05-18T06:34:44;11.97;;;8.60;;
11319;SDS011;5715;48.234;14.320;2023-05-18T06:37:31;12.53;;;10.03;;
11319;SDS011;5715;48.234;14.320;2023-05-18T06:40:19;12.10;;;8.33;;
11319;SDS011;5715;48.234;14.320;2023-05-18T06:43:07;11.97;;;8.03;;
11319;SDS011;5715;48.234;14.320;2023-05-18T06:45:55;16.90;;;10.90;;
11319;SDS011;5715;48.234;14.320;2023-05-18T06:48:42;12.73;;;8.30;;
11319;SDS011;5715;48.234;14.320;2023-05-18T06:51:31;13.00;;;7.40;;
11319;SDS011;5715;48.234;14.320;2023-05-18T06:54:18;11.17;;;9.00;;
11319;SDS011;5715;48.234;14.320;2023-05-18T06:57:06;8.27;;;6.00;;
11319;SDS011;5715;48.234;14.320;2023-05-18T06:59:54;13.60;;;8.07;;
11319;SDS011;5715;48.234;14.320;2023-05-18T07:02:42;8.93;;;6.33;;
11319;SDS011;5715;48.234;14.320;2023-05-18T07:05:31;11.47;;;6.27;;
11319;SDS011;5715;48.234;14.320;2023-05-18T07:08:21;12.43;;;7.50;;
11319;SDS011;5715;48.234;14.320;2023-05-18T07:11:10;15.23;;;7.57;;
11319;SDS011;5715;48.234;14.320;2023-05-18T07:13:58;12.30;;;7.00;;
11319;SDS011;5715;48.234;14.320;2023-05-18T07:16:46;11.67;;;6.50;;
11319;SDS011;5715;48.234;14.320;2023-05-18T07:19:33;10.50;;;7.70;;
11319;SDS011;5715;48.234;14.320;2023-05-18T07:22:21;11.90;;;6.83;;
11319;SDS011;5715;48.234;14.320;2023-05-18T07:25:08;15.33;;;5.90;;
11319;SDS011;5715;48.234;14.320;2023-05-18T07:27:56;11.60;;;5.73;;
11319;SDS011;5715;48.234;14.320;2023-05-18T07:30:44;10.00;;;6.20;;
11319;SDS011;5715;48.234;14.320;2023-05-18T07:33:31;8.83;;;5.03;;
11319;SDS011;5715;48.234;14.320;2023-05-18T07:36:19;16.00;;;7.03;;
11319;SDS011;5715;48.234;14.320;2023-05-18T07:39:07;7.13;;;4.50;;
11319;SDS011;5715;48.234;14.320;2023-05-18T07:42:07;9.00;;;5.77;;
11319;SDS011;5715;48.234;14.320;2023-05-18T07:44:54;6.90;;;5.03;;
11319;SDS011;5715;48.234;14.320;2023-05-18T07:47:42;7.47;;;5.10;;
11319;SDS011;5715;48.234;14.320;2023-05-18T07:50:30;8.67;;;5.57;;
11319;SDS011;5715;48.234;14.320;2023-05-18T07:53:20;10.43;;;4.27;;
11319;SDS011;5715;48.234;14.320;2023-05-18T07:56:07;6.77;;;4.13;;
11319;SDS011;5715;48.234;14.320;2023-05-18T07:58:55;6.93;;;4.57;;
11319;SDS011;5715;48.234;14.320;2023-05-18T08:01:43;9.03;;;3.83;;
11319;SDS011;5715;48.234;14.320;2023-05-18T08:04:31;7.67;;;3.63;;
11319;SDS011;5715;48.234;14.320;2023-05-18T08:07:19;4.77;;;2.73;;
11319;SDS011;5715;48.234;14.320;2023-05-18T08:10:07;10.70;;;3.37;;
11319;SDS011;5715;48.234;14.320;2023-05-18T08:12:55;5.50;;;2.70;;
11319;SDS011;5715;48.234;14.320;2023-05-18T08:15:43;8.80;;;3.07;;
11319;SDS011;5715;48.234;14.320;2023-05-18T08:18:34;3.43;;;2.63;;
11319;SDS011;5715;48.234;14.320;2023-05-18T08:21:22;12.33;;;2.77;;
11319;SDS011;5715;48.234;14.320;2023-05-18T08:24:09;4.67;;;3.30;;
11319;SDS011;5715;48.234;14.320;2023-05-18T08:26:57;7.17;;;3.27;;
11319;SDS011;5715;48.234;14.320;2023-05-18T08:29:46;11.67;;;3.70;;
11319;SDS011;5715;48.234;14.320;2023-05-18T08:32:33;5.63;;;3.37;;
11319;SDS011;5715;48.234;14.320;2023-05-18T08:35:23;5.37;;;3.53;;
11319;SDS011;5715;48.234;14.320;2023-05-18T08:38:10;4.13;;;3.03;;
11319;SDS011;5715;48.234;14.320;2023-05-18T08:41:33;7.47;;;3.60;;
11319;SDS011;5715;48.234;14.320;2023-05-18T08:44:21;6.57;;;3.00;;
11319;SDS011;5715;48.234;14.320;2023-05-18T08:47:12;6.07;;;3.50;;
11319;SDS011;5715;48.234;14.320;2023-05-18T08:50:02;6.27;;;3.07;;
11319;SDS011;5715;48.234;14.320;2023-05-18T08:52:53;5.53;;;4.00;;
11319;SDS011;5715;48.234;14.320;2023-05-18T08:55:45;4.30;;;3.10;;
11319;SDS011;5715;48.234;14.320;2023-05-18T08:58:40;4.23;;;2.50;;
11319;SDS011;5715;48.234;14.320;2023-05-18T09:01:36;5.90;;;3.00;;
11319;SDS011;5715;48.234;14.320;2023-05-18T09:04:24;4.60;;;3.03;;
11319;SDS011;5715;48.234;14.320;2023-05-18T09:07:13;4.00;;;2.77;;
11319;SDS011;5715;48.234;14.320;2023-05-18T09:10:03;6.53;;;2.50;;
11319;SDS011;5715;48.234;14.320;2023-05-18T09:12:51;4.10;;;2.90;;
11319;SDS011;5715;48.234;14.320;2023-05-18T09:15:42;10.10;;;3.27;;
11319;SDS011;5715;48.234;14.320;2023-05-18T09:18:30;4.10;;;3.27;;
11319;SDS011;5715;48.234;14.320;2023-05-18T09:21:18;3.03;;;2.47;;
11319;SDS011;5715;48.234;14.320;2023-05-18T09:24:05;7.83;;;2.97;;
11319;SDS011;5715;48.234;14.320;2023-05-18T09:26:54;5.07;;;3.00;;
11319;SDS011;5715;48.234;14.320;2023-05-18T09:29:55;13.07;;;3.87;;
11319;SDS011;5715;48.234;14.320;2023-05-18T09:32:45;7.97;;;3.00;;
11319;SDS011;5715;48.234;14.320;2023-05-18T09:35:33;11.97;;;2.90;;
11319;SDS011;5715;48.234;14.320;2023-05-18T09:38:23;8.33;;;3.77;;
11319;SDS011;5715;48.234;14.320;2023-05-18T09:41:12;3.77;;;3.03;;
11319;SDS011;5715;48.234;14.320;2023-05-18T09:44:05;9.77;;;3.50;;
11319;SDS011;5715;48.234;14.320;2023-05-18T09:46:58;9.53;;;3.50;;
11319;SDS011;5715;48.234;14.320;2023-05-18T09:49:47;5.03;;;3.73;;
11319;SDS011;5715;48.234;14.320;2023-05-18T09:52:41;4.10;;;2.97;;
11319;SDS011;5715;48.234;14.320;2023-05-18T09:55:30;4.50;;;3.90;;
11319;SDS011;5715;48.234;14.320;2023-05-18T09:58:18;3.83;;;3.30;;
11319;SDS011;5715;48.234;14.320;2023-05-18T10:01:06;4.10;;;3.70;;
11319;SDS011;5715;48.234;14.320;2023-05-18T10:03:53;8.03;;;3.97;;
11319;SDS011;5715;48.234;14.320;2023-05-18T10:06:50;4.67;;;3.90;;
11319;SDS011;5715;48.234;14.320;2023-05-18T10:09:38;9.73;;;3.60;;
11319;SDS011;5715;48.234;14.320;2023-05-18T10:12:28;2.70;;;2.50;;
11319;SDS011;5715;48.234;14.320;2023-05-18T10:15:19;2.70;;;2.50;;
11319;SDS011;5715;48.234;14.320;2023-05-18T10:18:09;3.10;;;2.77;;
11319;SDS011;5715;48.234;14.320;2023-05-18T10:20:58;4.83;;;2.67;;
11319;SDS011;5715;48.234;14.320;2023-05-18T10:23:48;3.70;;;2.70;;
11319;SDS011;5715;48.234;14.320;2023-05-18T10:26:38;3.17;;;2.33;;
11319;SDS011;5715;48.234;14.320;2023-05-18T10:29:31;3.50;;;2.43;;
11319;SDS011;5715;48.234;14.320;2023-05-18T10:32:19;3.50;;;2.87;;
11319;SDS011;5715;48.234;14.320;2023-05-18T10:35:11;3.40;;;2.57;;
11319;SDS011;5715;48.234;14.320;2023-05-18T10:37:59;9.60;;;2.27;;
11319;SDS011;5715;48.234;14.320;2023-05-18T10:40:51;2.60;;;2.20;;
11319;SDS011;5715;48.234;14.320;2023-05-18T10:43:42;6.07;;;2.40;;
11319;SDS011;5715;48.234;14.320;2023-05-18T10:46:31;6.53;;;2.63;;
11319;SDS011;5715;48.234;14.320;2023-05-18T10:49:21;3.00;;;2.30;;
11319;SDS011;5715;48.234;14.320;2023-05-18T10:52:12;3.30;;;2.60;;
11319;SDS011;5715;48.234;14.320;2023-05-18T10:55:03;4.27;;;2.20;;
11319;SDS011;5715;48.234;14.320;2023-05-18T10:57:55;2.50;;;2.10;;
11319;SDS011;5715;48.234;14.320;2023-05-18T11:00:53;5.97;;;2.37;;
11319;SDS011;5715;48.234;14.320;2023-05-18T11:03:49;2.57;;;2.10;;
11319;SDS011;5715;48.234;14.320;2023-05-18T11:06:37;5.33;;;2.17;;
11319;SDS011;5715;48.234;14.320;2023-05-18T11:09:29;5.27;;;2.50;;
11319;SDS011;5715;48.234;14.320;2023-05-18T11:12:18;2.33;;;2.13;;
11319;SDS011;5715;48.234;14.320;2023-05-18T11:15:09;3.60;;;2.33;;
11319;SDS011;5715;48.234;14.320;2023-05-18T11:18:12;10.63;;;2.10;;
11319;SDS011;5715;48.234;14.320;2023-05-18T11:21:01;5.87;;;3.13;;
11319;SDS011;5715;48.234;14.320;2023-05-18T11:27:16;2.53;;;2.13;;
11319;SDS011;5715;48.234;14.320;2023-05-18T11:30:16;3.63;;;2.50;;
11319;SDS011;5715;48.234;14.320;2023-05-18T11:33:32;2.07;;;1.70;;
11319;SDS011;5715;48.234;14.320;2023-05-18T11:36:22;2.70;;;2.47;;
11319;SDS011;5715;48.234;14.320;2023-05-18T11:39:11;11.07;;;2.77;;
11319;SDS011;5715;48.234;14.320;2023-05-18T11:42:10;2.70;;;2.43;;
11319;SDS011;5715;48.234;14.320;2023-05-18T11:45:07;5.57;;;3.07;;
11319;SDS011;5715;48.234;14.320;2023-05-18T11:47:56;2.20;;;1.93;;
11319;SDS011;5715;48.234;14.320;2023-05-18T11:50:51;8.30;;;2.20;;
11319;SDS011;5715;48.234;14.320;2023-05-18T11:53:43;3.00;;;2.33;;
11319;SDS011;5715;48.234;14.320;2023-05-18T11:56:31;2.00;;;1.73;;
11319;SDS011;5715;48.234;14.320;2023-05-18T11:59:32;3.93;;;2.40;;
11319;SDS011;5715;48.234;14.320;2023-05-18T12:02:24;3.07;;;1.97;;
11319;SDS011;5715;48.234;14.320;2023-05-18T12:05:17;2.97;;;2.37;;
11319;SDS011;5715;48.234;14.320;2023-05-18T12:08:08;2.63;;;2.03;;
11319;SDS011;5715;48.234;14.320;2023-05-18T12:10:56;2.53;;;2.27;;
11319;SDS011;5715;48.234;14.320;2023-05-18T12:13:45;3.90;;;2.03;;
11319;SDS011;5715;48.234;14.320;2023-05-18T12:16:38;4.47;;;2.13;;
11319;SDS011;5715;48.234;14.320;2023-05-18T12:19:26;6.67;;;2.90;;
11319;SDS011;5715;48.234;14.320;2023-05-18T12:22:14;3.80;;;2.00;;
11319;SDS011;5715;48.234;14.320;2023-05-18T12:25:02;9.00;;;2.00;;
11319;SDS011;5715;48.234;14.320;2023-05-18T12:27:51;2.33;;;1.90;;
11319;SDS011;5715;48.234;14.320;2023-05-18T12:30:41;1.70;;;1.40;;
11319;SDS011;5715;48.234;14.320;2023-05-18T12:33:31;4.90;;;1.37;;
11319;SDS011;5715;48.234;14.320;2023-05-18T12:36:22;8.07;;;1.80;;
11319;SDS011;5715;48.234;14.320;2023-05-18T12:39:13;1.77;;;1.67;;
11319;SDS011;5715;48.234;14.320;2023-05-18T12:42:11;4.17;;;1.80;;
11319;SDS011;5715;48.234;14.320;2023-05-18T12:45:06;3.00;;;1.87;;
11319;SDS011;5715;48.234;14.320;2023-05-18T12:48:06;2.60;;;1.77;;
11319;SDS011;5715;48.234;14.320;2023-05-18T12:50:56;1.47;;;1.37;;
11319;SDS011;5715;48.234;14.320;2023-05-18T12:53:47;1.70;;;1.60;;
11319;SDS011;5715;48.234;14.320;2023-05-18T12:56:52;3.53;;;2.63;;
11319;SDS011;5715;48.234;14.320;2023-05-18T12:59:48;5.20;;;1.90;;
11319;SDS011;5715;48.234;14.320;2023-05-18T13:02:36;2.73;;;2.13;;
11319;SDS011;5715;48.234;14.320;2023-05-18T13:05:24;8.17;;;3.33;;
11319;SDS011;5715;48.234;14.320;2023-05-18T13:08:15;5.07;;;1.90;;
11319;SDS011;5715;48.234;14.320;2023-05-18T13:11:09;10.37;;;1.90;;
11319;SDS011;5715;48.234;14.320;2023-05-18T13:14:02;4.63;;;1.93;;
11319;SDS011;5715;48.234;14.320;2023-05-18T13:16:51;2.50;;;1.57;;
11319;SDS011;5715;48.234;14.320;2023-05-18T13:19:41;4.83;;;2.03;;
11319;SDS011;5715;48.234;14.320;2023-05-18T13:22:28;2.53;;;1.27;;
11319;SDS011;5715;48.234;14.320;2023-05-18T13:25:16;1.90;;;1.60;;
11319;SDS011;5715;48.234;14.320;2023-05-18T13:28:05;6.40;;;2.03;;
11319;SDS011;5715;48.234;14.320;2023-05-18T13:30:54;6.00;;;1.90;;
11319;SDS011;5715;48.234;14.320;2023-05-18T13:33:42;6.37;;;2.53;;
11319;SDS011;5715;48.234;14.320;2023-05-18T13:36:30;1.43;;;1.30;;
11319;SDS011;5715;48.234;14.320;2023-05-18T13:39:21;3.70;;;1.93;;
11319;SDS011;5715;48.234;14.320;2023-05-18T13:42:09;2.17;;;1.53;;
11319;SDS011;5715;48.234;14.320;2023-05-18T13:44:57;3.03;;;1.90;;
11319;SDS011;5715;48.234;14.320;2023-05-18T13:47:44;1.13;;;1.10;;
11319;SDS011;5715;48.234;14.320;2023-05-18T13:50:36;1.57;;;1.47;;
11319;SDS011;5715;48.234;14.320;2023-05-18T13:53:25;2.77;;;1.80;;
11319;SDS011;5715;48.234;14.320;2023-05-18T13:56:13;1.43;;;1.33;;
11319;SDS011;5715;48.234;14.320;2023-05-18T13:59:00;2.60;;;1.67;;
11319;SDS011;5715;48.234;14.320;2023-05-18T14:01:49;1.50;;;1.40;;
11319;SDS011;5715;48.234;14.320;2023-05-18T14:04:37;4.40;;;1.93;;
11319;SDS011;5715;48.234;14.320;2023-05-18T14:07:24;4.53;;;1.83;;
11319;SDS011;5715;48.234;14.320;2023-05-18T14:10:12;1.47;;;1.33;;
11319;SDS011;5715;48.234;14.320;2023-05-18T14:13:00;5.17;;;1.60;;
11319;SDS011;5715;48.234;14.320;2023-05-18T14:15:48;1.87;;;1.67;;
11319;SDS011;5715;48.234;14.320;2023-05-18T14:18:35;2.07;;;1.87;;
11319;SDS011;5715;48.234;14.320;2023-05-18T14:21:23;3.10;;;2.30;;
11319;SDS011;5715;48.234;14.320;2023-05-18T14:24:10;1.93;;;1.83;;
11319;SDS011;5715;48.234;14.320;2023-05-18T14:27:01;1.50;;;1.40;;
11319;SDS011;5715;48.234;14.320;2023-05-18T14:29:48;5.33;;;2.03;;
11319;SDS011;5715;48.234;14.320;2023-05-18T14:32:36;2.07;;;1.83;;
11319;SDS011;5715;48.234;14.320;2023-05-18T14:35:24;2.40;;;1.83;;
11319;SDS011;5715;48.234;14.320;2023-05-18T14:38:12;3.97;;;1.70;;
11319;SDS011;5715;48.234;14.320;2023-05-18T14:40:59;6.73;;;2.10;;
11319;SDS011;5715;48.234;14.320;2023-05-18T14:43:47;2.00;;;1.90;;
11319;SDS011;5715;48.234;14.320;2023-05-18T14:46:36;1.97;;;1.77;;
11319;SDS011;5715;48.234;14.320;2023-05-18T14:49:25;3.47;;;1.87;;
11319;SDS011;5715;48.234;14.320;2023-05-18T14:52:13;3.43;;;1.90;;
11319;SDS011;5715;48.234;14.320;2023-05-18T14:55:01;1.30;;;1.20;;
11319;SDS011;5715;48.234;14.320;2023-05-18T14:57:49;1.83;;;1.52;;
11319;SDS011;5715;48.234;14.320;2023-05-18T15:00:36;5.90;;;1.90;;
11319;SDS011;5715;48.234;14.320;2023-05-18T15:03:24;3.03;;;1.90;;
11319;SDS011;5715;48.234;14.320;2023-05-18T15:06:14;1.30;;;1.30;;
11319;SDS011;5715;48.234;14.320;2023-05-18T15:09:01;3.90;;;1.30;;
11319;SDS011;5715;48.234;14.320;2023-05-18T15:11:52;2.03;;;1.77;;
11319;SDS011;5715;48.234;14.320;2023-05-18T15:14:39;1.17;;;1.07;;
11319;SDS011;5715;48.234;14.320;2023-05-18T15:17:27;2.17;;;1.70;;
11319;SDS011;5715;48.234;14.320;2023-05-18T15:20:17;1.30;;;1.20;;
11319;SDS011;5715;48.234;14.320;2023-05-18T15:23:04;8.47;;;1.60;;
11319;SDS011;5715;48.234;14.320;2023-05-18T15:25:52;1.63;;;1.30;;
11319;SDS011;5715;48.234;14.320;2023-05-18T15:28:40;2.67;;;1.50;;
11319;SDS011;5715;48.234;14.320;2023-05-18T15:31:30;1.70;;;1.60;;
11319;SDS011;5715;48.234;14.320;2023-05-18T15:34:18;2.57;;;1.30;;
11319;SDS011;5715;48.234;14.320;2023-05-18T15:37:09;1.10;;;1.00;;
11319;SDS011;5715;48.234;14.320;2023-05-18T15:39:57;1.13;;;1.03;;
11319;SDS011;5715;48.234;14.320;2023-05-18T15:42:45;1.40;;;1.20;;
11319;SDS011;5715;48.234;14.320;2023-05-18T15:45:32;1.23;;;1.20;;
11319;SDS011;5715;48.234;14.320;2023-05-18T15:48:20;1.97;;;1.57;;
11319;SDS011;5715;48.234;14.320;2023-05-18T15:51:08;1.57;;;1.47;;
11319;SDS011;5715;48.234;14.320;2023-05-18T15:53:55;2.40;;;1.80;;
11319;SDS011;5715;48.234;14.320;2023-05-18T15:56:43;5.43;;;1.40;;
11319;SDS011;5715;48.234;14.320;2023-05-18T15:59:31;3.63;;;1.40;;
11319;SDS011;5715;48.234;14.320;2023-05-18T16:02:18;3.00;;;1.43;;
11319;SDS011;5715;48.234;14.320;2023-05-18T16:05:08;1.43;;;1.30;;
11319;SDS011;5715;48.234;14.320;2023-05-18T16:07:56;2.50;;;1.47;;
11319;SDS011;5715;48.234;14.320;2023-05-18T16:10:43;2.77;;;1.60;;
11319;SDS011;5715;48.234;14.320;2023-05-18T16:13:31;2.83;;;1.60;;
11319;SDS011;5715;48.234;14.320;2023-05-18T16:16:19;2.13;;;1.37;;
11319;SDS011;5715;48.234;14.320;2023-05-18T16:19:11;2.30;;;1.67;;
11319;SDS011;5715;48.234;14.320;2023-05-18T16:21:58;4.17;;;1.33;;
11319;SDS011;5715;48.234;14.320;2023-05-18T16:24:46;7.20;;;1.47;;
11319;SDS011;5715;48.234;14.320;2023-05-18T16:27:34;1.57;;;1.17;;
11319;SDS011;5715;48.234;14.320;2023-05-18T16:30:22;3.67;;;1.47;;
11319;SDS011;5715;48.234;14.320;2023-05-18T16:33:10;2.30;;;1.40;;
11319;SDS011;5715;48.234;14.320;2023-05-18T16:35:58;4.13;;;1.40;;
11319;SDS011;5715;48.234;14.320;2023-05-18T16:38:45;2.90;;;1.40;;
11319;SDS011;5715;48.234;14.320;2023-05-18T16:41:33;2.47;;;2.07;;
11319;SDS011;5715;48.234;14.320;2023-05-18T16:44:21;1.47;;;1.20;;
11319;SDS011;5715;48.234;14.320;2023-05-18T16:47:08;4.33;;;1.50;;
11319;SDS011;5715;48.234;14.320;2023-05-18T16:49:56;2.20;;;1.77;;
11319;SDS011;5715;48.234;14.320;2023-05-18T16:52:44;3.67;;;1.50;;
11319;SDS011;5715;48.234;14.320;2023-05-18T16:55:32;1.53;;;1.33;;
11319;SDS011;5715;48.234;14.320;2023-05-18T16:58:19;1.93;;;1.43;;
11319;SDS011;5715;48.234;14.320;2023-05-18T17:01:07;2.13;;;1.30;;
11319;SDS011;5715;48.234;14.320;2023-05-18T17:04:12;1.30;;;1.07;;
11319;SDS011;5715;48.234;14.320;2023-05-18T17:07:00;5.57;;;1.37;;